sensor_id;sensor_type;location;lat;lon;timestamp;P1;durP1;ratioP1;P2;durP2;ratioP2
84849;SDS011;75096;49.576;11.024;2024-03-23T00:53:21;33.47;;;18.95;;
84849;SDS011;75096;49.576;11.024;2024-03-23T00:54:22;40.42;;;21.35;;
84849;SDS011;75096;49.576;11.024;2024-03-23T00:55:22;35.30;;;18.20;;
84849;SDS011;75096;49.576;11.024;2024-03-23T00:56:23;27.48;;;13.57;;
84849;SDS011;75096;49.576;11.024;2024-03-23T00:57:24;16.88;;;9.13;;
84849;SDS011;75096;49.576;11.024;2024-03-23T00:58:25;12.82;;;6.03;;
84849;SDS011;75096;49.576;11.024;2024-03-23T00:59:25;8.80;;;4.63;;
84849;SDS011;75096;49.576;11.024;2024-03-23T01:00:29;7.10;;;4.35;;
84849;SDS011;75096;49.576;11.024;2024-03-23T01:01:29;10.35;;;4.20;;
84849;SDS011;75096;49.576;11.024;2024-03-23T01:02:30;7.25;;;3.95;;
84849;SDS011;75096;49.576;11.024;2024-03-23T01:03:30;9.57;;;4.32;;
84849;SDS011;75096;49.576;11.024;2024-03-23T01:04:31;7.68;;;4.35;;
84849;SDS011;75096;49.576;11.024;2024-03-23T01:05:32;6.95;;;4.05;;
84849;SDS011;75096;49.576;11.024;2024-03-23T01:06:32;9.27;;;4.13;;
84849;SDS011;75096;49.576;11.024;2024-03-23T01:07:33;8.57;;;4.35;;
84849;SDS011;75096;49.576;11.024;2024-03-23T01:08:34;8.23;;;4.13;;
84849;SDS011;75096;49.576;11.024;2024-03-23T01:09:34;10.70;;;4.47;;
84849;SDS011;75096;49.576;11.024;2024-03-23T01:10:35;8.82;;;4.40;;
84849;SDS011;75096;49.576;11.024;2024-03-23T01:11:36;8.07;;;4.30;;
84849;SDS011;75096;49.576;11.024;2024-03-23T01:12:37;7.88;;;4.00;;
84849;SDS011;75096;49.576;11.024;2024-03-23T01:13:38;11.18;;;4.63;;
84849;SDS011;75096;49.576;11.024;2024-03-23T01:14:38;11.48;;;4.78;;
84849;SDS011;75096;49.576;11.024;2024-03-23T01:15:39;8.75;;;4.35;;
84849;SDS011;75096;49.576;11.024;2024-03-23T01:16:39;9.05;;;4.55;;
84849;SDS011;75096;49.576;11.024;2024-03-23T01:17:40;9.68;;;4.53;;
84849;SDS011;75096;49.576;11.024;2024-03-23T01:18:41;8.73;;;4.43;;
84849;SDS011;75096;49.576;11.024;2024-03-23T01:19:42;9.13;;;4.18;;
84849;SDS011;75096;49.576;11.024;2024-03-23T01:20:42;7.03;;;4.03;;
84849;SDS011;75096;49.576;11.024;2024-03-23T01:21:43;6.65;;;4.32;;
84849;SDS011;75096;49.576;11.024;2024-03-23T01:22:44;8.10;;;3.88;;
84849;SDS011;75096;49.576;11.024;2024-03-23T01:23:44;8.90;;;4.22;;
84849;SDS011;75096;49.576;11.024;2024-03-23T01:24:45;7.13;;;3.88;;
84849;SDS011;75096;49.576;11.024;2024-03-23T01:25:54;8.25;;;3.90;;
84849;SDS011;75096;49.576;11.024;2024-03-23T01:26:55;8.55;;;4.15;;
84849;SDS011;75096;49.576;11.024;2024-03-23T01:27:56;7.50;;;4.03;;
84849;SDS011;75096;49.576;11.024;2024-03-23T01:28:56;9.07;;;4.45;;
84849;SDS011;75096;49.576;11.024;2024-03-23T01:29:57;7.60;;;4.40;;
84849;SDS011;75096;49.576;11.024;2024-03-23T01:30:57;7.45;;;4.28;;
84849;SDS011;75096;49.576;11.024;2024-03-23T01:31:58;7.68;;;4.57;;
84849;SDS011;75096;49.576;11.024;2024-03-23T01:32:59;7.65;;;3.92;;
84849;SDS011;75096;49.576;11.024;2024-03-23T01:33:59;7.70;;;4.22;;
84849;SDS011;75096;49.576;11.024;2024-03-23T01:35:00;6.95;;;3.83;;
84849;SDS011;75096;49.576;11.024;2024-03-23T01:36:00;8.30;;;4.45;;
84849;SDS011;75096;49.576;11.024;2024-03-23T01:37:01;6.45;;;3.92;;
84849;SDS011;75096;49.576;11.024;2024-03-23T01:38:01;8.30;;;4.07;;
84849;SDS011;75096;49.576;11.024;2024-03-23T01:39:02;6.68;;;4.65;;
84849;SDS011;75096;49.576;11.024;2024-03-23T01:40:03;8.38;;;5.38;;
84849;SDS011;75096;49.576;11.024;2024-03-23T01:41:04;8.68;;;5.13;;
84849;SDS011;75096;49.576;11.024;2024-03-23T01:42:05;8.48;;;4.97;;
84849;SDS011;75096;49.576;11.024;2024-03-23T01:43:07;9.23;;;5.55;;
84849;SDS011;75096;49.576;11.024;2024-03-23T01:44:10;9.10;;;4.72;;
84849;SDS011;75096;49.576;11.024;2024-03-23T01:45:11;8.77;;;4.32;;
84849;SDS011;75096;49.576;11.024;2024-03-23T01:46:11;9.88;;;4.07;;
84849;SDS011;75096;49.576;11.024;2024-03-23T01:47:12;9.93;;;4.60;;
84849;SDS011;75096;49.576;11.024;2024-03-23T01:48:13;7.63;;;4.32;;
84849;SDS011;75096;49.576;11.024;2024-03-23T01:49:13;8.45;;;4.43;;
84849;SDS011;75096;49.576;11.024;2024-03-23T01:50:14;8.88;;;5.20;;
84849;SDS011;75096;49.576;11.024;2024-03-23T01:51:15;9.75;;;4.55;;
84849;SDS011;75096;49.576;11.024;2024-03-23T01:52:15;8.70;;;5.25;;
84849;SDS011;75096;49.576;11.024;2024-03-23T01:53:16;9.57;;;5.32;;
84849;SDS011;75096;49.576;11.024;2024-03-23T01:54:21;9.35;;;5.22;;
84849;SDS011;75096;49.576;11.024;2024-03-23T01:55:23;8.95;;;5.05;;
84849;SDS011;75096;49.576;11.024;2024-03-23T01:56:24;7.82;;;4.72;;
84849;SDS011;75096;49.576;11.024;2024-03-23T01:57:24;8.82;;;5.30;;
84849;SDS011;75096;49.576;11.024;2024-03-23T01:58:25;11.88;;;6.40;;
84849;SDS011;75096;49.576;11.024;2024-03-23T01:59:26;9.70;;;5.35;;
84849;SDS011;75096;49.576;11.024;2024-03-23T02:00:26;10.93;;;5.53;;
84849;SDS011;75096;49.576;11.024;2024-03-23T02:01:28;9.85;;;5.55;;
84849;SDS011;75096;49.576;11.024;2024-03-23T02:02:29;11.52;;;5.13;;
84849;SDS011;75096;49.576;11.024;2024-03-23T02:03:29;10.95;;;6.10;;
84849;SDS011;75096;49.576;11.024;2024-03-23T02:04:30;9.63;;;5.57;;
84849;SDS011;75096;49.576;11.024;2024-03-23T02:05:30;11.65;;;5.40;;
84849;SDS011;75096;49.576;11.024;2024-03-23T02:06:31;9.23;;;5.63;;
84849;SDS011;75096;49.576;11.024;2024-03-23T02:07:32;10.23;;;6.13;;
84849;SDS011;75096;49.576;11.024;2024-03-23T02:08:32;10.77;;;5.72;;
84849;SDS011;75096;49.576;11.024;2024-03-23T02:09:33;10.70;;;5.50;;
84849;SDS011;75096;49.576;11.024;2024-03-23T02:10:34;11.75;;;5.57;;
84849;SDS011;75096;49.576;11.024;2024-03-23T02:11:34;10.48;;;5.85;;
84849;SDS011;75096;49.576;11.024;2024-03-23T02:12:35;10.43;;;5.95;;
84849;SDS011;75096;49.576;11.024;2024-03-23T02:13:36;13.90;;;6.15;;
84849;SDS011;75096;49.576;11.024;2024-03-23T02:14:37;9.98;;;5.55;;
84849;SDS011;75096;49.576;11.024;2024-03-23T02:15:39;9.73;;;5.80;;
84849;SDS011;75096;49.576;11.024;2024-03-23T02:16:39;10.75;;;5.53;;
84849;SDS011;75096;49.576;11.024;2024-03-23T02:17:40;10.00;;;5.47;;
84849;SDS011;75096;49.576;11.024;2024-03-23T02:18:41;11.65;;;6.28;;
84849;SDS011;75096;49.576;11.024;2024-03-23T02:19:42;11.85;;;5.80;;
84849;SDS011;75096;49.576;11.024;2024-03-23T02:20:42;10.52;;;6.57;;
84849;SDS011;75096;49.576;11.024;2024-03-23T02:21:43;10.45;;;5.88;;
84849;SDS011;75096;49.576;11.024;2024-03-23T02:22:44;9.88;;;5.72;;
84849;SDS011;75096;49.576;11.024;2024-03-23T02:23:44;9.15;;;5.75;;
84849;SDS011;75096;49.576;11.024;2024-03-23T02:24:45;12.40;;;6.38;;
84849;SDS011;75096;49.576;11.024;2024-03-23T02:25:45;9.35;;;5.80;;
84849;SDS011;75096;49.576;11.024;2024-03-23T02:26:46;10.38;;;6.15;;
84849;SDS011;75096;49.576;11.024;2024-03-23T02:27:49;11.65;;;6.38;;
84849;SDS011;75096;49.576;11.024;2024-03-23T02:28:49;10.40;;;6.10;;
84849;SDS011;75096;49.576;11.024;2024-03-23T02:29:50;11.80;;;6.07;;
84849;SDS011;75096;49.576;11.024;2024-03-23T02:30:51;11.20;;;6.53;;
84849;SDS011;75096;49.576;11.024;2024-03-23T02:31:52;10.43;;;5.60;;
84849;SDS011;75096;49.576;11.024;2024-03-23T02:32:53;13.20;;;6.28;;
84849;SDS011;75096;49.576;11.024;2024-03-23T02:33:53;9.30;;;5.72;;
84849;SDS011;75096;49.576;11.024;2024-03-23T02:34:54;12.70;;;6.22;;
84849;SDS011;75096;49.576;11.024;2024-03-23T02:35:57;11.10;;;6.47;;
84849;SDS011;75096;49.576;11.024;2024-03-23T02:36:58;10.25;;;5.60;;
84849;SDS011;75096;49.576;11.024;2024-03-23T02:37:59;10.68;;;6.22;;
84849;SDS011;75096;49.576;11.024;2024-03-23T02:39:00;11.32;;;6.03;;
84849;SDS011;75096;49.576;11.024;2024-03-23T02:40:00;11.48;;;6.00;;
84849;SDS011;75096;49.576;11.024;2024-03-23T02:41:04;10.27;;;5.90;;
84849;SDS011;75096;49.576;11.024;2024-03-23T02:42:05;11.88;;;5.80;;
84849;SDS011;75096;49.576;11.024;2024-03-23T02:43:06;11.05;;;5.38;;
84849;SDS011;75096;49.576;11.024;2024-03-23T02:44:07;10.02;;;5.85;;
84849;SDS011;75096;49.576;11.024;2024-03-23T02:45:08;11.25;;;5.88;;
84849;SDS011;75096;49.576;11.024;2024-03-23T02:46:08;11.45;;;5.88;;
84849;SDS011;75096;49.576;11.024;2024-03-23T02:47:09;10.20;;;5.40;;
84849;SDS011;75096;49.576;11.024;2024-03-23T02:48:10;11.30;;;5.32;;
84849;SDS011;75096;49.576;11.024;2024-03-23T02:49:11;10.05;;;5.65;;
84849;SDS011;75096;49.576;11.024;2024-03-23T02:50:11;10.73;;;6.13;;
84849;SDS011;75096;49.576;11.024;2024-03-23T02:51:12;12.60;;;6.15;;
84849;SDS011;75096;49.576;11.024;2024-03-23T02:52:12;10.48;;;5.90;;
84849;SDS011;75096;49.576;11.024;2024-03-23T02:53:13;9.38;;;5.50;;
84849;SDS011;75096;49.576;11.024;2024-03-23T02:54:14;11.05;;;6.22;;
84849;SDS011;75096;49.576;11.024;2024-03-23T02:55:15;12.00;;;6.05;;
84849;SDS011;75096;49.576;11.024;2024-03-23T02:56:15;10.25;;;5.70;;
84849;SDS011;75096;49.576;11.024;2024-03-23T02:57:16;9.38;;;5.22;;
84849;SDS011;75096;49.576;11.024;2024-03-23T02:58:17;9.77;;;5.20;;
84849;SDS011;75096;49.576;11.024;2024-03-23T02:59:18;8.93;;;5.57;;
84849;SDS011;75096;49.576;11.024;2024-03-23T03:00:19;9.60;;;6.00;;
84849;SDS011;75096;49.576;11.024;2024-03-23T03:01:19;10.30;;;5.30;;
84849;SDS011;75096;49.576;11.024;2024-03-23T03:02:20;11.85;;;5.55;;
84849;SDS011;75096;49.576;11.024;2024-03-23T03:03:21;11.90;;;5.85;;
84849;SDS011;75096;49.576;11.024;2024-03-23T03:04:22;12.50;;;5.70;;
84849;SDS011;75096;49.576;11.024;2024-03-23T03:05:22;10.98;;;6.25;;
84849;SDS011;75096;49.576;11.024;2024-03-23T03:06:24;11.02;;;5.57;;
84849;SDS011;75096;49.576;11.024;2024-03-23T03:07:25;10.02;;;5.35;;
84849;SDS011;75096;49.576;11.024;2024-03-23T03:08:26;9.63;;;5.25;;
84849;SDS011;75096;49.576;11.024;2024-03-23T03:09:26;10.23;;;5.65;;
84849;SDS011;75096;49.576;11.024;2024-03-23T03:10:27;9.43;;;5.57;;
84849;SDS011;75096;49.576;11.024;2024-03-23T03:11:27;11.57;;;5.90;;
84849;SDS011;75096;49.576;11.024;2024-03-23T03:12:28;11.77;;;6.00;;
84849;SDS011;75096;49.576;11.024;2024-03-23T03:13:29;9.43;;;5.38;;
84849;SDS011;75096;49.576;11.024;2024-03-23T03:14:29;10.15;;;5.78;;
84849;SDS011;75096;49.576;11.024;2024-03-23T03:15:30;8.50;;;4.88;;
84849;SDS011;75096;49.576;11.024;2024-03-23T03:16:30;11.20;;;5.30;;
84849;SDS011;75096;49.576;11.024;2024-03-23T03:17:31;9.73;;;5.32;;
84849;SDS011;75096;49.576;11.024;2024-03-23T03:18:32;12.38;;;5.50;;
84849;SDS011;75096;49.576;11.024;2024-03-23T03:19:32;11.82;;;5.80;;
84849;SDS011;75096;49.576;11.024;2024-03-23T03:20:33;9.85;;;5.50;;
84849;SDS011;75096;49.576;11.024;2024-03-23T03:21:35;10.15;;;5.13;;
84849;SDS011;75096;49.576;11.024;2024-03-23T03:22:35;10.98;;;5.70;;
84849;SDS011;75096;49.576;11.024;2024-03-23T03:23:39;10.90;;;5.68;;
84849;SDS011;75096;49.576;11.024;2024-03-23T03:24:40;10.15;;;5.75;;
84849;SDS011;75096;49.576;11.024;2024-03-23T03:25:40;9.52;;;5.35;;
84849;SDS011;75096;49.576;11.024;2024-03-23T03:26:41;10.10;;;5.70;;
84849;SDS011;75096;49.576;11.024;2024-03-23T03:27:42;11.15;;;5.60;;
84849;SDS011;75096;49.576;11.024;2024-03-23T03:28:42;10.77;;;5.78;;
84849;SDS011;75096;49.576;11.024;2024-03-23T03:29:44;10.90;;;5.72;;
84849;SDS011;75096;49.576;11.024;2024-03-23T03:30:44;11.13;;;5.90;;
84849;SDS011;75096;49.576;11.024;2024-03-23T03:31:45;9.88;;;5.72;;
84849;SDS011;75096;49.576;11.024;2024-03-23T03:32:46;12.77;;;5.72;;
84849;SDS011;75096;49.576;11.024;2024-03-23T03:33:47;8.88;;;5.50;;
84849;SDS011;75096;49.576;11.024;2024-03-23T03:34:49;11.35;;;5.43;;
84849;SDS011;75096;49.576;11.024;2024-03-23T03:35:50;10.35;;;6.18;;
84849;SDS011;75096;49.576;11.024;2024-03-23T03:36:52;11.50;;;6.45;;
84849;SDS011;75096;49.576;11.024;2024-03-23T03:37:53;10.65;;;5.88;;
84849;SDS011;75096;49.576;11.024;2024-03-23T03:38:53;12.38;;;5.85;;
84849;SDS011;75096;49.576;11.024;2024-03-23T03:39:54;10.98;;;5.82;;
84849;SDS011;75096;49.576;11.024;2024-03-23T03:40:54;10.05;;;5.93;;
84849;SDS011;75096;49.576;11.024;2024-03-23T03:41:55;12.23;;;6.43;;
84849;SDS011;75096;49.576;11.024;2024-03-23T03:42:56;13.13;;;6.32;;
84849;SDS011;75096;49.576;11.024;2024-03-23T03:43:56;11.60;;;5.20;;
84849;SDS011;75096;49.576;11.024;2024-03-23T03:45:01;11.35;;;5.35;;
84849;SDS011;75096;49.576;11.024;2024-03-23T03:47:05;10.63;;;5.20;;
84849;SDS011;75096;49.576;11.024;2024-03-23T03:48:07;9.43;;;5.68;;
84849;SDS011;75096;49.576;11.024;2024-03-23T03:49:08;10.75;;;5.65;;
84849;SDS011;75096;49.576;11.024;2024-03-23T03:50:09;11.15;;;6.18;;
84849;SDS011;75096;49.576;11.024;2024-03-23T03:51:10;11.65;;;5.68;;
84849;SDS011;75096;49.576;11.024;2024-03-23T03:52:11;9.80;;;5.70;;
84849;SDS011;75096;49.576;11.024;2024-03-23T03:53:12;11.20;;;5.65;;
84849;SDS011;75096;49.576;11.024;2024-03-23T03:54:12;10.07;;;6.32;;
84849;SDS011;75096;49.576;11.024;2024-03-23T03:55:13;10.75;;;5.95;;
84849;SDS011;75096;49.576;11.024;2024-03-23T03:56:14;13.05;;;5.85;;
84849;SDS011;75096;49.576;11.024;2024-03-23T03:57:15;11.45;;;5.88;;
84849;SDS011;75096;49.576;11.024;2024-03-23T03:58:15;12.50;;;5.95;;
84849;SDS011;75096;49.576;11.024;2024-03-23T03:59:16;12.70;;;5.88;;
84849;SDS011;75096;49.576;11.024;2024-03-23T04:00:17;15.38;;;6.38;;
84849;SDS011;75096;49.576;11.024;2024-03-23T04:01:18;9.48;;;5.32;;
84849;SDS011;75096;49.576;11.024;2024-03-23T04:02:19;10.25;;;5.65;;
84849;SDS011;75096;49.576;11.024;2024-03-23T04:03:19;9.40;;;5.15;;
84849;SDS011;75096;49.576;11.024;2024-03-23T04:04:20;10.43;;;5.30;;
84849;SDS011;75096;49.576;11.024;2024-03-23T04:05:22;10.30;;;5.75;;
84849;SDS011;75096;49.576;11.024;2024-03-23T04:06:23;11.88;;;6.45;;
84849;SDS011;75096;49.576;11.024;2024-03-23T04:07:24;11.57;;;6.10;;
84849;SDS011;75096;49.576;11.024;2024-03-23T04:08:25;10.93;;;5.45;;
84849;SDS011;75096;49.576;11.024;2024-03-23T04:09:25;9.95;;;5.10;;
84849;SDS011;75096;49.576;11.024;2024-03-23T04:10:26;11.88;;;6.05;;
84849;SDS011;75096;49.576;11.024;2024-03-23T04:11:27;12.25;;;6.20;;
84849;SDS011;75096;49.576;11.024;2024-03-23T04:12:27;9.43;;;5.40;;
84849;SDS011;75096;49.576;11.024;2024-03-23T04:13:28;10.05;;;5.45;;
84849;SDS011;75096;49.576;11.024;2024-03-23T04:14:29;10.25;;;5.90;;
84849;SDS011;75096;49.576;11.024;2024-03-23T04:15:29;11.93;;;5.75;;
84849;SDS011;75096;49.576;11.024;2024-03-23T04:16:33;12.98;;;5.55;;
84849;SDS011;75096;49.576;11.024;2024-03-23T04:17:35;13.82;;;6.18;;
84849;SDS011;75096;49.576;11.024;2024-03-23T04:18:36;9.80;;;5.63;;
84849;SDS011;75096;49.576;11.024;2024-03-23T04:19:36;10.88;;;5.95;;
84849;SDS011;75096;49.576;11.024;2024-03-23T04:20:37;10.48;;;5.50;;
84849;SDS011;75096;49.576;11.024;2024-03-23T04:21:38;10.40;;;5.72;;
84849;SDS011;75096;49.576;11.024;2024-03-23T04:22:39;11.45;;;5.63;;
84849;SDS011;75096;49.576;11.024;2024-03-23T04:23:40;8.80;;;5.20;;
84849;SDS011;75096;49.576;11.024;2024-03-23T04:24:40;11.57;;;6.13;;
84849;SDS011;75096;49.576;11.024;2024-03-23T04:25:41;11.73;;;5.72;;
84849;SDS011;75096;49.576;11.024;2024-03-23T04:26:42;11.07;;;5.47;;
84849;SDS011;75096;49.576;11.024;2024-03-23T04:27:43;13.95;;;5.78;;
84849;SDS011;75096;49.576;11.024;2024-03-23T04:28:44;12.25;;;5.47;;
84849;SDS011;75096;49.576;11.024;2024-03-23T04:29:50;9.73;;;5.45;;
84849;SDS011;75096;49.576;11.024;2024-03-23T04:30:51;10.35;;;5.20;;
84849;SDS011;75096;49.576;11.024;2024-03-23T04:31:51;9.25;;;5.28;;
84849;SDS011;75096;49.576;11.024;2024-03-23T04:32:52;11.60;;;5.90;;
84849;SDS011;75096;49.576;11.024;2024-03-23T04:33:53;10.30;;;5.32;;
84849;SDS011;75096;49.576;11.024;2024-03-23T04:34:54;8.88;;;5.68;;
84849;SDS011;75096;49.576;11.024;2024-03-23T04:35:55;9.85;;;5.70;;
84849;SDS011;75096;49.576;11.024;2024-03-23T04:36:55;10.93;;;5.65;;
84849;SDS011;75096;49.576;11.024;2024-03-23T04:37:56;11.77;;;5.78;;
84849;SDS011;75096;49.576;11.024;2024-03-23T04:38:59;9.70;;;5.80;;
84849;SDS011;75096;49.576;11.024;2024-03-23T04:40:03;11.88;;;5.82;;
84849;SDS011;75096;49.576;11.024;2024-03-23T04:41:04;10.57;;;5.22;;
84849;SDS011;75096;49.576;11.024;2024-03-23T04:42:04;12.43;;;5.72;;
84849;SDS011;75096;49.576;11.024;2024-03-23T04:43:05;11.77;;;5.65;;
84849;SDS011;75096;49.576;11.024;2024-03-23T04:44:06;12.60;;;6.05;;
84849;SDS011;75096;49.576;11.024;2024-03-23T04:45:06;9.70;;;5.45;;
84849;SDS011;75096;49.576;11.024;2024-03-23T04:46:07;10.00;;;6.03;;
84849;SDS011;75096;49.576;11.024;2024-03-23T04:47:08;10.88;;;5.68;;
84849;SDS011;75096;49.576;11.024;2024-03-23T04:48:08;13.55;;;6.20;;
84849;SDS011;75096;49.576;11.024;2024-03-23T04:49:09;11.07;;;6.82;;
84849;SDS011;75096;49.576;11.024;2024-03-23T04:50:10;14.65;;;6.55;;
84849;SDS011;75096;49.576;11.024;2024-03-23T04:51:11;11.32;;;6.53;;
84849;SDS011;75096;49.576;11.024;2024-03-23T04:52:14;11.60;;;6.78;;
84849;SDS011;75096;49.576;11.024;2024-03-23T04:53:15;12.35;;;6.13;;
84849;SDS011;75096;49.576;11.024;2024-03-23T04:54:16;10.32;;;6.18;;
84849;SDS011;75096;49.576;11.024;2024-03-23T04:55:17;11.40;;;6.60;;
84849;SDS011;75096;49.576;11.024;2024-03-23T04:56:17;12.60;;;6.03;;
84849;SDS011;75096;49.576;11.024;2024-03-23T04:57:18;12.07;;;6.60;;
84849;SDS011;75096;49.576;11.024;2024-03-23T04:58:19;11.00;;;6.80;;
84849;SDS011;75096;49.576;11.024;2024-03-23T04:59:20;14.75;;;7.03;;
84849;SDS011;75096;49.576;11.024;2024-03-23T05:00:20;10.48;;;6.63;;
84849;SDS011;75096;49.576;11.024;2024-03-23T05:01:21;11.05;;;6.22;;
84849;SDS011;75096;49.576;11.024;2024-03-23T05:02:22;13.45;;;6.63;;
84849;SDS011;75096;49.576;11.024;2024-03-23T05:03:23;11.85;;;6.65;;
84849;SDS011;75096;49.576;11.024;2024-03-23T05:04:24;11.82;;;7.40;;
84849;SDS011;75096;49.576;11.024;2024-03-23T05:05:24;12.00;;;6.75;;
84849;SDS011;75096;49.576;11.024;2024-03-23T05:06:25;10.82;;;6.22;;
84849;SDS011;75096;49.576;11.024;2024-03-23T05:07:26;10.98;;;6.20;;
84849;SDS011;75096;49.576;11.024;2024-03-23T05:08:26;12.02;;;6.40;;
84849;SDS011;75096;49.576;11.024;2024-03-23T05:09:27;12.05;;;6.35;;
84849;SDS011;75096;49.576;11.024;2024-03-23T05:10:30;10.07;;;6.00;;
84849;SDS011;75096;49.576;11.024;2024-03-23T05:11:33;14.13;;;6.18;;
84849;SDS011;75096;49.576;11.024;2024-03-23T05:12:34;10.68;;;5.78;;
84849;SDS011;75096;49.576;11.024;2024-03-23T05:13:34;12.15;;;5.88;;
84849;SDS011;75096;49.576;11.024;2024-03-23T05:14:35;11.68;;;6.13;;
84849;SDS011;75096;49.576;11.024;2024-03-23T05:15:35;11.88;;;6.20;;
84849;SDS011;75096;49.576;11.024;2024-03-23T05:16:36;11.27;;;6.13;;
84849;SDS011;75096;49.576;11.024;2024-03-23T05:17:37;13.00;;;6.90;;
84849;SDS011;75096;49.576;11.024;2024-03-23T05:18:38;12.13;;;6.55;;
84849;SDS011;75096;49.576;11.024;2024-03-23T05:19:39;11.05;;;6.35;;
84849;SDS011;75096;49.576;11.024;2024-03-23T05:20:39;10.90;;;6.20;;
84849;SDS011;75096;49.576;11.024;2024-03-23T05:21:40;10.30;;;6.10;;
84849;SDS011;75096;49.576;11.024;2024-03-23T05:22:40;10.75;;;6.28;;
84849;SDS011;75096;49.576;11.024;2024-03-23T05:23:41;11.23;;;6.82;;
84849;SDS011;75096;49.576;11.024;2024-03-23T05:24:44;11.77;;;6.43;;
84849;SDS011;75096;49.576;11.024;2024-03-23T05:25:45;10.60;;;6.15;;
84849;SDS011;75096;49.576;11.024;2024-03-23T05:26:46;11.63;;;6.25;;
84849;SDS011;75096;49.576;11.024;2024-03-23T05:27:46;10.73;;;6.13;;
84849;SDS011;75096;49.576;11.024;2024-03-23T05:28:47;9.75;;;5.82;;
84849;SDS011;75096;49.576;11.024;2024-03-23T05:29:48;10.85;;;6.13;;
84849;SDS011;75096;49.576;11.024;2024-03-23T05:30:52;11.32;;;6.07;;
84849;SDS011;75096;49.576;11.024;2024-03-23T05:31:53;13.30;;;6.40;;
84849;SDS011;75096;49.576;11.024;2024-03-23T05:32:56;10.57;;;6.05;;
84849;SDS011;75096;49.576;11.024;2024-03-23T05:33:57;10.57;;;6.15;;
84849;SDS011;75096;49.576;11.024;2024-03-23T05:34:58;10.25;;;5.65;;
84849;SDS011;75096;49.576;11.024;2024-03-23T05:35:59;9.85;;;5.68;;
84849;SDS011;75096;49.576;11.024;2024-03-23T05:37:01;10.48;;;6.32;;
84849;SDS011;75096;49.576;11.024;2024-03-23T05:38:01;11.90;;;5.80;;
84849;SDS011;75096;49.576;11.024;2024-03-23T05:39:03;11.20;;;5.88;;
84849;SDS011;75096;49.576;11.024;2024-03-23T05:40:03;14.23;;;6.03;;
84849;SDS011;75096;49.576;11.024;2024-03-23T05:41:04;9.70;;;5.78;;
84849;SDS011;75096;49.576;11.024;2024-03-23T05:42:05;15.07;;;5.90;;
84849;SDS011;75096;49.576;11.024;2024-03-23T05:43:06;11.40;;;5.53;;
84849;SDS011;75096;49.576;11.024;2024-03-23T05:44:07;9.88;;;5.25;;
84849;SDS011;75096;49.576;11.024;2024-03-23T05:45:08;10.18;;;6.03;;
84849;SDS011;75096;49.576;11.024;2024-03-23T05:46:09;10.57;;;5.50;;
84849;SDS011;75096;49.576;11.024;2024-03-23T05:47:09;10.48;;;5.63;;
84849;SDS011;75096;49.576;11.024;2024-03-23T05:48:10;9.15;;;5.57;;
84849;SDS011;75096;49.576;11.024;2024-03-23T05:49:11;10.48;;;5.30;;
84849;SDS011;75096;49.576;11.024;2024-03-23T05:50:12;7.85;;;4.72;;
84849;SDS011;75096;49.576;11.024;2024-03-23T05:51:12;9.38;;;5.45;;
84849;SDS011;75096;49.576;11.024;2024-03-23T05:52:13;10.02;;;4.97;;
84849;SDS011;75096;49.576;11.024;2024-03-23T05:53:17;10.10;;;5.13;;
84849;SDS011;75096;49.576;11.024;2024-03-23T05:54:18;10.05;;;4.93;;
84849;SDS011;75096;49.576;11.024;2024-03-23T05:55:19;9.20;;;5.18;;
84849;SDS011;75096;49.576;11.024;2024-03-23T05:56:19;10.20;;;5.15;;
84849;SDS011;75096;49.576;11.024;2024-03-23T05:57:20;8.88;;;4.68;;
84849;SDS011;75096;49.576;11.024;2024-03-23T05:58:21;8.73;;;4.80;;
84849;SDS011;75096;49.576;11.024;2024-03-23T05:59:21;7.93;;;4.70;;
84849;SDS011;75096;49.576;11.024;2024-03-23T06:00:22;9.25;;;4.50;;
84849;SDS011;75096;49.576;11.024;2024-03-23T06:01:22;8.93;;;5.10;;
84849;SDS011;75096;49.576;11.024;2024-03-23T06:02:23;7.03;;;4.45;;
84849;SDS011;75096;49.576;11.024;2024-03-23T06:03:24;11.98;;;4.85;;
84849;SDS011;75096;49.576;11.024;2024-03-23T06:04:25;8.93;;;5.13;;
84849;SDS011;75096;49.576;11.024;2024-03-23T06:05:26;9.65;;;4.57;;
84849;SDS011;75096;49.576;11.024;2024-03-23T06:06:26;8.00;;;4.53;;
84849;SDS011;75096;49.576;11.024;2024-03-23T06:07:27;8.48;;;4.90;;
84849;SDS011;75096;49.576;11.024;2024-03-23T06:08:27;9.05;;;4.25;;
84849;SDS011;75096;49.576;11.024;2024-03-23T06:09:28;8.88;;;4.55;;
84849;SDS011;75096;49.576;11.024;2024-03-23T06:11:32;9.57;;;4.90;;
84849;SDS011;75096;49.576;11.024;2024-03-23T06:12:32;9.20;;;4.45;;
84849;SDS011;75096;49.576;11.024;2024-03-23T06:13:33;8.95;;;4.43;;
84849;SDS011;75096;49.576;11.024;2024-03-23T06:14:34;8.18;;;4.65;;
84849;SDS011;75096;49.576;11.024;2024-03-23T06:15:35;9.20;;;4.55;;
84849;SDS011;75096;49.576;11.024;2024-03-23T06:16:38;9.05;;;4.40;;
84849;SDS011;75096;49.576;11.024;2024-03-23T06:17:38;8.55;;;4.45;;
84849;SDS011;75096;49.576;11.024;2024-03-23T06:18:39;9.93;;;4.47;;
84849;SDS011;75096;49.576;11.024;2024-03-23T06:19:40;7.57;;;4.45;;
84849;SDS011;75096;49.576;11.024;2024-03-23T06:20:40;8.77;;;4.32;;
84849;SDS011;75096;49.576;11.024;2024-03-23T06:21:44;7.88;;;4.50;;
84849;SDS011;75096;49.576;11.024;2024-03-23T06:22:45;8.65;;;4.75;;
84849;SDS011;75096;49.576;11.024;2024-03-23T06:23:46;8.57;;;4.57;;
84849;SDS011;75096;49.576;11.024;2024-03-23T06:24:51;9.95;;;4.88;;
84849;SDS011;75096;49.576;11.024;2024-03-23T06:25:51;11.02;;;5.30;;
84849;SDS011;75096;49.576;11.024;2024-03-23T06:26:52;7.78;;;4.55;;
84849;SDS011;75096;49.576;11.024;2024-03-23T06:27:52;8.43;;;4.47;;
84849;SDS011;75096;49.576;11.024;2024-03-23T06:28:53;8.98;;;5.00;;
84849;SDS011;75096;49.576;11.024;2024-03-23T06:29:54;9.88;;;5.03;;
84849;SDS011;75096;49.576;11.024;2024-03-23T06:30:55;8.88;;;4.88;;
84849;SDS011;75096;49.576;11.024;2024-03-23T06:31:55;8.15;;;4.55;;
84849;SDS011;75096;49.576;11.024;2024-03-23T06:32:56;8.50;;;5.00;;
84849;SDS011;75096;49.576;11.024;2024-03-23T06:33:57;8.57;;;4.75;;
84849;SDS011;75096;49.576;11.024;2024-03-23T06:34:57;9.45;;;4.95;;
84849;SDS011;75096;49.576;11.024;2024-03-23T06:35:58;9.30;;;4.90;;
84849;SDS011;75096;49.576;11.024;2024-03-23T06:36:58;8.93;;;5.07;;
84849;SDS011;75096;49.576;11.024;2024-03-23T06:37:59;9.30;;;5.13;;
84849;SDS011;75096;49.576;11.024;2024-03-23T06:39:00;10.02;;;5.45;;
84849;SDS011;75096;49.576;11.024;2024-03-23T06:40:00;10.70;;;5.25;;
84849;SDS011;75096;49.576;11.024;2024-03-23T06:41:08;10.35;;;5.60;;
84849;SDS011;75096;49.576;11.024;2024-03-23T06:42:08;10.50;;;5.25;;
84849;SDS011;75096;49.576;11.024;2024-03-23T06:43:09;10.25;;;5.55;;
84849;SDS011;75096;49.576;11.024;2024-03-23T06:44:10;10.98;;;5.55;;
84849;SDS011;75096;49.576;11.024;2024-03-23T06:45:11;10.52;;;5.40;;
84849;SDS011;75096;49.576;11.024;2024-03-23T06:46:12;11.18;;;5.40;;
84849;SDS011;75096;49.576;11.024;2024-03-23T06:47:12;9.90;;;5.80;;
84849;SDS011;75096;49.576;11.024;2024-03-23T06:48:13;10.50;;;6.13;;
84849;SDS011;75096;49.576;11.024;2024-03-23T06:49:14;9.73;;;5.55;;
84849;SDS011;75096;49.576;11.024;2024-03-23T06:50:15;11.27;;;5.88;;
84849;SDS011;75096;49.576;11.024;2024-03-23T06:51:16;9.15;;;5.35;;
84849;SDS011;75096;49.576;11.024;2024-03-23T06:52:16;10.20;;;5.60;;
84849;SDS011;75096;49.576;11.024;2024-03-23T06:53:17;9.63;;;5.53;;